createdAt,value
2022-11-24T00:00:18.313Z,9.95
2022-11-24T00:02:20.036Z,9.97
2022-11-24T00:04:21.798Z,9.96
2022-11-24T00:06:24.216Z,9.98
2022-11-24T00:08:25.819Z,9.97
2022-11-24T00:10:27.365Z,9.96
2022-11-24T00:12:29.126Z,9.97
2022-11-24T00:14:34.119Z,10.01
2022-11-24T00:16:37.474Z,10.01
2022-11-24T00:18:40.742Z,10.00
2022-11-24T00:20:42.369Z,10.00
2022-11-24T00:22:44.016Z,10.02
2022-11-24T00:24:47.369Z,10.01
2022-11-24T00:26:49.111Z,10.03
2022-11-24T00:28:52.720Z,10.04
2022-11-24T00:30:56.422Z,10.04
2022-11-24T00:32:59.495Z,10.05
2022-11-24T00:35:01.143Z,10.04
2022-11-24T00:37:02.697Z,10.05
2022-11-24T00:39:11.670Z,10.04
2022-11-24T00:41:14.010Z,10.05
2022-11-24T00:43:15.545Z,10.06
2022-11-24T00:45:17.132Z,10.07
2022-11-24T00:47:19.298Z,10.08
2022-11-24T00:49:21.008Z,10.08
2022-11-24T00:51:26.028Z,10.10
2022-11-24T00:53:31.721Z,10.08
2022-11-24T00:55:35.983Z,10.08
2022-11-24T00:57:37.629Z,10.09
2022-11-24T00:59:39.305Z,10.08
2022-11-24T01:01:42.518Z,10.10
2022-11-24T01:03:46.126Z,10.10
2022-11-24T01:05:48.013Z,10.11
2022-11-24T01:07:50.794Z,10.12
2022-11-24T01:09:52.637Z,10.13
2022-11-24T01:12:04.053Z,10.15
2022-11-24T01:14:12.387Z,10.13
2022-11-24T01:16:23.042Z,10.14
2022-11-24T01:18:24.640Z,10.15
2022-11-24T01:20:26.391Z,10.16
2022-11-24T01:22:28.346Z,10.16
2022-11-24T01:24:33.421Z,10.18
2022-11-24T01:26:35.409Z,10.19
2022-11-24T01:28:40.588Z,10.20
2022-11-24T01:30:47.215Z,10.23
2022-11-24T01:32:48.943Z,10.21
2022-11-24T01:34:53.478Z,10.23
2022-11-24T01:36:54.945Z,10.25
2022-11-24T01:39:02.451Z,10.26
2022-11-24T01:41:19.179Z,10.27
2022-11-24T01:43:26.399Z,10.28
2022-11-24T01:45:43.777Z,10.29
2022-11-24T01:47:45.408Z,10.32
2022-11-24T01:50:03.012Z,10.33
2022-11-24T01:52:17.898Z,10.34
2022-11-24T01:54:30.009Z,10.35
2022-11-24T01:56:34.737Z,10.37
2022-11-24T01:58:41.814Z,10.39
2022-11-24T02:00:45.614Z,10.40
2022-11-24T02:02:47.317Z,10.42
2022-11-24T02:04:50.547Z,10.43
2022-11-24T02:06:53.663Z,10.43
2022-11-24T02:09:00.745Z,10.46
2022-11-24T02:11:05.366Z,10.48
2022-11-24T02:13:06.922Z,10.49
2022-11-24T02:15:10.015Z,10.51
2022-11-24T02:17:12.283Z,10.52
2022-11-24T02:19:21.020Z,10.54
2022-11-24T02:21:22.700Z,10.55
2022-11-24T02:23:38.143Z,10.56
2022-11-24T02:26:06.581Z,10.56
2022-11-24T02:28:12.569Z,10.57
2022-11-24T02:30:14.383Z,10.58
2022-11-24T02:32:18.785Z,10.59
2022-11-24T02:34:20.479Z,10.61
2022-11-24T02:36:22.222Z,10.61
2022-11-24T02:38:35.259Z,10.62
2022-11-24T02:40:37.413Z,10.65
2022-11-24T02:42:44.386Z,10.67
2022-11-24T02:44:51.417Z,10.67
2022-11-24T02:47:06.424Z,10.67
2022-11-24T02:49:08.153Z,10.70
2022-11-24T02:51:09.905Z,10.69
2022-11-24T02:53:11.500Z,10.71
2022-11-24T02:55:15.654Z,10.71
2022-11-24T02:57:17.290Z,10.73
2022-11-24T02:59:19.373Z,10.74
2022-11-24T03:01:21.042Z,10.75
2022-11-24T03:03:23.008Z,10.76
2022-11-24T03:05:24.659Z,10.77
2022-11-24T03:07:28.088Z,10.79
2022-11-24T03:09:30.541Z,10.78
2022-11-24T03:11:32.496Z,10.81
2022-11-24T03:13:33.970Z,10.82
2022-11-24T03:15:41.671Z,10.81
2022-11-24T03:17:43.474Z,10.80
2022-11-24T03:19:45.034Z,10.82
2022-11-24T03:21:50.968Z,10.83
2022-11-24T03:23:53.171Z,10.83
2022-11-24T03:25:57.032Z,10.86
2022-11-24T03:27:58.693Z,10.88
2022-11-24T03:30:00.527Z,10.89
2022-11-24T03:32:07.386Z,10.91
2022-11-24T03:34:09.035Z,10.90
2022-11-24T03:36:10.634Z,10.92
2022-11-24T03:38:12.136Z,10.94
2022-11-24T03:40:13.918Z,10.96
2022-11-24T03:42:15.749Z,10.96
2022-11-24T03:44:17.911Z,10.96
2022-11-24T03:46:19.714Z,11.00
2022-11-24T03:48:21.482Z,10.98
2022-11-24T03:50:23.181Z,10.99
2022-11-24T03:52:28.760Z,11.01
2022-11-24T03:54:33.366Z,11.01
2022-11-24T03:56:35.225Z,11.02
2022-11-24T03:58:40.866Z,11.04
2022-11-24T04:00:42.347Z,11.05
2022-11-24T04:02:45.932Z,11.06
2022-11-24T04:04:50.681Z,11.06
2022-11-24T04:06:52.396Z,11.08
2022-11-24T04:08:54.313Z,11.09
2022-11-24T04:10:55.930Z,11.07
2022-11-24T04:12:57.619Z,11.10
2022-11-24T04:14:59.043Z,11.10
2022-11-24T04:17:00.717Z,11.12
2022-11-24T04:19:02.335Z,11.11
2022-11-24T04:21:04.119Z,11.11
2022-11-24T04:23:06.010Z,11.12
2022-11-24T04:25:09.578Z,11.13
2022-11-24T04:27:16.962Z,11.14
2022-11-24T04:29:18.468Z,11.12
2022-11-24T04:31:20.130Z,11.12
2022-11-24T04:33:21.819Z,11.13
2022-11-24T04:35:23.493Z,11.11
2022-11-24T04:37:25.188Z,11.13
2022-11-24T04:39:28.598Z,11.12
2022-11-24T04:41:30.386Z,11.13
2022-11-24T04:43:36.364Z,11.13
2022-11-24T04:45:40.697Z,11.14
2022-11-24T04:47:42.220Z,11.16
2022-11-24T04:49:43.916Z,11.16
2022-11-24T04:51:45.669Z,11.17
2022-11-24T04:53:48.974Z,11.17
2022-11-24T04:55:50.564Z,11.21
2022-11-24T04:57:52.055Z,11.20
2022-11-24T04:59:55.833Z,11.21
2022-11-24T05:01:59.624Z,11.23
2022-11-24T05:04:01.265Z,11.23
2022-11-24T05:06:03.295Z,11.25
2022-11-24T05:08:05.196Z,11.26
2022-11-24T05:10:27.611Z,11.26
2022-11-24T05:12:31.304Z,11.26
2022-11-24T05:14:33.043Z,11.26
2022-11-24T05:16:34.749Z,11.29
2022-11-24T05:18:37.857Z,11.32
2022-11-24T05:20:39.610Z,11.33
2022-11-24T05:22:41.223Z,11.34
2022-11-24T05:24:45.944Z,11.34
2022-11-24T05:26:47.491Z,11.37
2022-11-24T05:28:50.332Z,11.37
2022-11-24T05:30:51.935Z,11.37
2022-11-24T05:32:53.597Z,11.38
2022-11-24T05:34:55.209Z,11.39
2022-11-24T05:37:02.887Z,11.39
2022-11-24T05:39:08.773Z,11.39
2022-11-24T05:41:10.358Z,11.40
2022-11-24T05:43:13.424Z,11.40
2022-11-24T05:45:21.503Z,11.42
2022-11-24T05:47:23.953Z,11.42
2022-11-24T05:49:25.935Z,11.43
2022-11-24T05:51:27.771Z,11.42
2022-11-24T05:53:29.295Z,11.41
2022-11-24T05:55:31.590Z,11.43
2022-11-24T05:57:37.481Z,11.43
2022-11-24T05:59:41.948Z,11.43
2022-11-24T06:01:46.464Z,11.43
2022-11-24T06:03:52.636Z,11.41
2022-11-24T06:05:54.366Z,11.42
2022-11-24T06:07:56.322Z,11.42
2022-11-24T06:09:58.075Z,11.43
2022-11-24T06:12:00.857Z,11.44
2022-11-24T06:14:11.372Z,11.42
2022-11-24T06:16:13.935Z,11.39
2022-11-24T06:18:17.938Z,11.39
2022-11-24T06:20:19.914Z,11.38
2022-11-24T06:22:21.626Z,11.40
2022-11-24T06:24:25.641Z,11.37
2022-11-24T06:26:30.677Z,11.35
2022-11-24T06:28:32.449Z,11.37
2022-11-24T06:30:34.422Z,11.35
2022-11-24T06:32:35.948Z,11.35
2022-11-24T06:34:37.656Z,11.35
2022-11-24T06:36:39.725Z,11.36
2022-11-24T06:38:41.425Z,11.34
2022-11-24T06:40:43.057Z,11.37
2022-11-24T06:42:55.382Z,11.35
2022-11-24T06:44:57.067Z,11.36
2022-11-24T06:46:58.670Z,11.33
2022-11-24T06:49:00.892Z,11.35
2022-11-24T06:51:06.201Z,11.32
2022-11-24T06:53:07.959Z,11.33
2022-11-24T06:55:09.810Z,11.33
2022-11-24T06:57:11.622Z,11.32
2022-11-24T06:59:19.172Z,11.33
2022-11-24T07:01:26.234Z,11.34
2022-11-24T07:03:28.218Z,11.34
2022-11-24T07:05:30.106Z,11.34
2022-11-24T07:07:31.770Z,11.33
2022-11-24T07:09:33.556Z,11.34
2022-11-24T07:11:35.794Z,11.34
2022-11-24T07:13:37.359Z,11.35
2022-11-24T07:15:39.608Z,11.35
2022-11-24T07:17:41.949Z,11.35
2022-11-24T07:19:43.578Z,11.35
2022-11-24T07:21:45.399Z,11.35
2022-11-24T07:23:51.263Z,11.38
2022-11-24T07:25:53.137Z,11.38
2022-11-24T07:27:58.827Z,11.39
2022-11-24T07:30:00.316Z,11.39
2022-11-24T07:32:05.451Z,11.39
2022-11-24T07:34:07.496Z,11.41
2022-11-24T07:36:09.583Z,11.40
2022-11-24T07:38:13.654Z,11.40
2022-11-24T07:40:16.238Z,11.41
2022-11-24T07:42:17.962Z,11.42
2022-11-24T07:44:19.679Z,11.43
2022-11-24T07:46:21.451Z,11.42
2022-11-24T07:48:23.228Z,11.44
2022-11-24T07:50:24.987Z,11.44
2022-11-24T07:52:26.898Z,11.46
2022-11-24T07:54:28.721Z,11.47
2022-11-24T07:56:30.413Z,11.50
2022-11-24T07:58:34.738Z,11.51
2022-11-24T08:00:37.663Z,11.53
2022-11-24T08:02:39.320Z,11.55
2022-11-24T08:04:40.827Z,11.57
2022-11-24T08:06:47.185Z,11.60
2022-11-24T08:08:49.141Z,11.65
2022-11-24T08:10:51.574Z,11.67
2022-11-24T08:12:53.151Z,11.72
2022-11-24T08:14:54.877Z,11.76
2022-11-24T08:16:58.146Z,11.80
2022-11-24T08:18:59.766Z,11.85
2022-11-24T08:21:01.871Z,11.88
2022-11-24T08:23:04.042Z,11.90
2022-11-24T08:25:07.835Z,11.94
2022-11-24T08:27:09.619Z,11.98
2022-11-24T08:29:11.232Z,12.00
2022-11-24T08:31:15.908Z,12.05
2022-11-24T08:33:17.496Z,12.09
2022-11-24T08:35:19.183Z,12.13
2022-11-24T08:37:25.963Z,12.17
2022-11-24T08:39:27.563Z,12.20
2022-11-24T08:41:31.998Z,12.24
2022-11-24T08:43:33.991Z,12.27
2022-11-24T08:45:41.161Z,12.34
2022-11-24T08:47:43.334Z,12.40
2022-11-24T08:49:45.239Z,12.43
2022-11-24T08:51:48.636Z,12.48
2022-11-24T08:53:57.200Z,12.53
2022-11-24T08:56:00.106Z,12.58
2022-11-24T08:58:02.140Z,12.66
2022-11-24T09:00:05.305Z,12.71
2022-11-24T09:02:11.564Z,12.74
2022-11-24T09:04:13.066Z,12.78
2022-11-24T09:06:15.707Z,12.84
2022-11-24T09:08:17.742Z,12.87
2022-11-24T09:10:19.627Z,12.89
2022-11-24T09:12:21.731Z,12.94
2022-11-24T09:14:23.373Z,12.96
2022-11-24T09:16:27.715Z,13.00
2022-11-24T09:18:30.634Z,13.01
2022-11-24T09:20:33.820Z,13.05
2022-11-24T09:22:35.676Z,13.07
2022-11-24T09:24:37.389Z,13.09
2022-11-24T09:26:44.605Z,13.10
2022-11-24T09:28:50.057Z,13.11
2022-11-24T09:30:51.861Z,13.12
2022-11-24T09:32:55.902Z,13.11
2022-11-24T09:34:57.686Z,13.13
2022-11-24T09:37:02.013Z,13.12
2022-11-24T09:39:04.864Z,13.13
2022-11-24T09:41:15.557Z,13.13
2022-11-24T09:43:41.212Z,13.12
2022-11-24T09:46:08.753Z,13.13
2022-11-24T09:48:29.275Z,13.14
2022-11-24T09:50:35.900Z,13.11
2022-11-24T09:52:44.954Z,13.12
2022-11-24T09:55:19.697Z,13.12
2022-11-24T09:57:25.881Z,13.13
2022-11-24T09:59:28.392Z,13.13
2022-11-24T10:01:33.903Z,13.13
2022-11-24T10:03:40.552Z,13.11
2022-11-24T10:05:43.113Z,13.13
2022-11-24T10:08:08.107Z,13.13
2022-11-24T10:10:22.900Z,13.14
2022-11-24T10:12:33.690Z,13.15
2022-11-24T10:14:49.769Z,13.13
2022-11-24T10:17:05.245Z,13.15
2022-11-24T10:19:18.725Z,13.16
2022-11-24T10:21:29.423Z,13.13
2022-11-24T10:23:54.802Z,13.14
2022-11-24T10:26:11.806Z,13.14
2022-11-24T10:28:15.628Z,13.15
2022-11-24T10:30:20.914Z,13.15
2022-11-24T10:32:33.774Z,13.14
2022-11-24T10:34:43.019Z,13.13
2022-11-24T10:36:54.771Z,13.11
2022-11-24T10:39:06.325Z,13.12
2022-11-24T10:41:15.135Z,13.11
2022-11-24T10:43:16.959Z,13.13
2022-11-24T10:45:24.382Z,13.11
2022-11-24T10:47:28.342Z,13.13
2022-11-24T10:49:33.945Z,13.11
2022-11-24T10:51:52.717Z,13.10
2022-11-24T10:54:01.357Z,13.11
2022-11-24T10:56:05.708Z,13.12
2022-11-24T10:58:17.159Z,13.12
2022-11-24T11:00:18.954Z,13.14
2022-11-24T11:02:34.369Z,13.12
2022-11-24T11:04:36.268Z,13.13
2022-11-24T11:06:38.124Z,13.15
2022-11-24T11:08:40.581Z,13.13
2022-11-24T11:10:44.185Z,13.14
2022-11-24T11:12:46.070Z,13.12
2022-11-24T11:14:48.578Z,13.14
2022-11-24T11:16:55.719Z,13.13
2022-11-24T11:18:57.653Z,13.13
2022-11-24T11:21:04.846Z,13.14
2022-11-24T11:23:38.896Z,13.13
2022-11-24T11:25:41.248Z,13.15
2022-11-24T11:27:43.126Z,13.17
2022-11-24T11:34:51.879Z,13.19
2022-11-24T11:36:59.794Z,13.21
2022-11-24T11:39:03.782Z,13.23
2022-11-24T11:41:08.485Z,13.23
2022-11-24T11:43:42.646Z,13.25
2022-11-24T11:45:46.707Z,13.26
2022-11-24T11:47:58.030Z,13.29
2022-11-24T11:49:59.990Z,13.33
2022-11-24T11:52:34.838Z,13.34
2022-11-24T11:55:08.487Z,13.35
2022-11-24T11:57:34.393Z,13.41
2022-11-24T11:59:39.335Z,13.45
2022-11-24T12:02:05.719Z,13.47
2022-11-24T12:04:19.729Z,13.52
2022-11-24T12:06:28.848Z,13.59
2022-11-24T12:09:19.762Z,13.64
2022-11-24T12:11:40.589Z,13.71
2022-11-24T12:13:53.044Z,13.78
2022-11-24T12:16:05.787Z,13.81
2022-11-24T12:18:58.795Z,13.83
2022-11-24T12:21:26.653Z,13.86
2022-11-24T12:23:57.857Z,13.93
2022-11-24T12:26:07.241Z,14.05
2022-11-24T12:28:26.562Z,14.12
2022-11-24T12:31:15.754Z,14.23
2022-11-24T12:34:00.925Z,14.30
2022-11-24T12:36:09.440Z,14.39
2022-11-24T12:39:02.492Z,14.47
2022-11-24T12:41:41.245Z,14.55
2022-11-24T12:43:51.958Z,14.60
2022-11-24T12:46:05.416Z,14.66
2022-11-24T12:48:15.433Z,14.69
2022-11-24T12:50:24.052Z,14.72
2022-11-24T12:52:39.518Z,14.72
2022-11-24T12:54:41.967Z,14.74
2022-11-24T12:56:52.767Z,14.74
2022-11-24T12:59:33.865Z,14.71
2022-11-24T13:01:58.834Z,14.69
2022-11-24T13:04:15.603Z,14.65
2022-11-24T13:06:27.109Z,14.65
2022-11-24T13:08:29.783Z,14.63
2022-11-24T13:10:54.752Z,14.61
2022-11-24T13:13:04.528Z,14.58
2022-11-24T13:15:43.580Z,14.57
2022-11-24T13:17:59.478Z,14.56
2022-11-24T13:20:19.101Z,14.54
2022-11-24T13:22:31.071Z,14.53
2022-11-24T13:24:36.948Z,14.53
2022-11-24T13:26:41.677Z,14.51
2022-11-24T13:29:13.368Z,14.47
2022-11-24T13:31:22.844Z,14.47
2022-11-24T13:33:30.588Z,14.45
2022-11-24T13:35:32.157Z,14.43
2022-11-24T13:37:35.069Z,14.41
2022-11-24T13:40:13.313Z,14.36
2022-11-24T13:42:43.366Z,14.36
2022-11-24T13:45:06.931Z,14.33
2022-11-24T13:47:33.113Z,14.28
2022-11-24T13:49:39.487Z,14.28
2022-11-24T13:51:41.268Z,14.26
2022-11-24T13:53:49.376Z,14.24
2022-11-24T13:56:00.299Z,14.20
2022-11-24T13:58:26.233Z,14.17
2022-11-24T14:00:33.929Z,14.16
2022-11-24T14:02:35.669Z,14.15
2022-11-24T14:04:39.501Z,14.12
2022-11-24T14:06:53.229Z,14.09
2022-11-24T14:08:59.701Z,14.08
2022-11-24T14:11:02.985Z,14.06
2022-11-24T14:13:22.804Z,14.01
2022-11-24T14:15:28.401Z,14.00
2022-11-24T14:17:29.910Z,13.96
2022-11-24T14:19:34.313Z,13.93
2022-11-24T14:21:41.843Z,13.92
2022-11-24T14:23:45.378Z,13.89
2022-11-24T14:25:51.888Z,13.86
2022-11-24T14:27:56.784Z,13.84
2022-11-24T14:30:08.029Z,13.82
2022-11-24T14:32:16.521Z,13.80
2022-11-24T14:34:23.691Z,13.77
2022-11-24T14:36:25.251Z,13.75
2022-11-24T14:38:27.193Z,13.75
2022-11-24T14:41:13.356Z,13.70
2022-11-24T14:43:26.015Z,13.69
2022-11-24T14:45:27.629Z,13.68
2022-11-24T14:47:45.073Z,13.65
2022-11-24T14:49:47.046Z,13.63
2022-11-24T14:51:56.398Z,13.63
2022-11-24T14:54:01.417Z,13.63
2022-11-24T14:56:21.195Z,13.61
2022-11-24T14:58:32.335Z,13.58
2022-11-24T15:00:34.031Z,13.59
2022-11-24T15:02:49.995Z,13.57
2022-11-24T15:05:03.615Z,13.57
2022-11-24T15:07:29.333Z,13.56
2022-11-24T15:09:48.568Z,13.53
2022-11-24T15:11:50.329Z,13.51
2022-11-24T15:13:54.788Z,13.49
2022-11-24T15:16:02.925Z,13.47
2022-11-24T15:18:06.752Z,13.45
2022-11-24T15:20:17.271Z,13.44
2022-11-24T15:22:39.957Z,13.40
2022-11-24T15:24:54.584Z,13.38
2022-11-24T15:27:01.164Z,13.35
2022-11-24T15:29:03.293Z,13.32
2022-11-24T15:31:13.572Z,13.27
2022-11-24T15:33:18.389Z,13.26
2022-11-24T15:35:22.804Z,13.23
2022-11-24T15:37:32.816Z,13.19
2022-11-24T15:39:35.702Z,13.16
2022-11-24T15:41:37.355Z,13.14
2022-11-24T15:43:40.781Z,13.11
2022-11-24T15:45:42.437Z,13.08
2022-11-24T15:47:44.365Z,13.06
2022-11-24T15:49:45.985Z,13.04
2022-11-24T15:51:48.486Z,13.01
2022-11-24T15:53:57.116Z,12.99
2022-11-24T15:56:05.787Z,12.96
2022-11-24T15:58:11.344Z,12.93
2022-11-24T16:00:17.997Z,12.89
2022-11-24T16:02:21.896Z,12.86
2022-11-24T16:04:23.675Z,12.84
2022-11-24T16:06:25.680Z,12.79
2022-11-24T16:08:27.488Z,12.78
2022-11-24T16:10:38.254Z,12.74
2022-11-24T16:12:40.124Z,12.69
2022-11-24T16:14:41.738Z,12.68
2022-11-24T16:16:43.671Z,12.64
2022-11-24T16:18:45.433Z,12.60
2022-11-24T16:20:47.013Z,12.58
2022-11-24T16:22:48.792Z,12.55
2022-11-24T16:24:50.334Z,12.52
2022-11-24T16:26:54.666Z,12.49
2022-11-24T16:28:56.189Z,12.46
2022-11-24T16:30:57.992Z,12.44
2022-11-24T16:33:02.594Z,12.42
2022-11-24T16:35:05.913Z,12.38
2022-11-24T16:37:07.540Z,12.36
2022-11-24T16:39:09.144Z,12.34
2022-11-24T16:41:10.995Z,12.33
2022-11-24T16:43:12.565Z,12.31
2022-11-24T16:45:14.242Z,12.30
2022-11-24T16:47:16.647Z,12.29
2022-11-24T16:49:18.546Z,12.27
2022-11-24T16:51:21.839Z,12.25
2022-11-24T16:53:23.498Z,12.25
2022-11-24T16:55:25.296Z,12.24
2022-11-24T16:57:27.195Z,12.23
2022-11-24T16:59:29.095Z,12.22
2022-11-24T17:01:33.376Z,12.21
2022-11-24T17:03:38.306Z,12.20
2022-11-24T17:05:39.984Z,12.20
2022-11-24T17:07:41.843Z,12.19
2022-11-24T17:09:43.465Z,12.19
2022-11-24T17:11:45.472Z,12.21
2022-11-24T17:13:50.537Z,12.19
2022-11-24T17:15:54.357Z,12.17
2022-11-24T17:18:22.977Z,12.18
2022-11-24T17:20:18.166Z,12.17
2022-11-24T17:22:22.596Z,12.18
2022-11-24T17:24:24.238Z,12.18
2022-11-24T17:26:26.919Z,12.19
2022-11-24T17:28:28.874Z,12.18
2022-11-24T17:30:30.374Z,12.18
2022-11-24T17:32:32.275Z,12.17
2022-11-24T17:34:34.292Z,12.16
2022-11-24T17:36:36.046Z,12.16
2022-11-24T17:38:37.834Z,12.15
2022-11-24T17:40:39.383Z,12.14
2022-11-24T17:42:41.155Z,12.13
2022-11-24T17:44:42.927Z,12.12
2022-11-24T17:46:45.092Z,12.09
2022-11-24T17:48:47.064Z,12.07
2022-11-24T17:50:49.274Z,12.06
2022-11-24T17:52:50.829Z,12.05
2022-11-24T17:54:52.559Z,12.03
2022-11-24T17:56:54.333Z,12.01
2022-11-24T17:58:58.472Z,11.99
2022-11-24T18:01:00.961Z,11.97
2022-11-24T18:03:05.464Z,11.95
2022-11-24T18:05:07.512Z,11.94
2022-11-24T18:07:09.201Z,11.89
2022-11-24T18:09:10.752Z,11.88
2022-11-24T18:11:15.533Z,11.85
2022-11-24T18:13:34.232Z,11.82
2022-11-24T18:15:38.953Z,11.78
2022-11-24T18:17:40.505Z,11.75
2022-11-24T18:19:42.096Z,11.71
2022-11-24T18:21:45.874Z,11.68
2022-11-24T18:23:47.507Z,11.66
2022-11-24T18:25:57.202Z,11.62
2022-11-24T18:27:59.110Z,11.58
2022-11-24T18:30:00.830Z,11.57
2022-11-24T18:32:02.803Z,11.54
2022-11-24T18:34:05.945Z,11.51
2022-11-24T18:36:08.307Z,11.47
2022-11-24T18:38:10.403Z,11.45
2022-11-24T18:40:12.191Z,11.41
2022-11-24T18:42:20.444Z,11.39
2022-11-24T18:44:22.376Z,11.36
2022-11-24T18:46:24.132Z,11.35
2022-11-24T18:48:28.412Z,11.31
2022-11-24T18:50:31.009Z,11.28
2022-11-24T18:52:32.641Z,11.26
2022-11-24T18:54:37.610Z,11.24
2022-11-24T18:56:39.350Z,11.22
2022-11-24T18:58:42.028Z,11.19
2022-11-24T19:00:44.414Z,11.18
2022-11-24T19:02:56.814Z,11.16
2022-11-24T19:04:58.590Z,11.13
2022-11-24T19:07:00.153Z,11.12
2022-11-24T19:09:11.675Z,11.11
2022-11-24T19:11:32.349Z,11.08
2022-11-24T19:13:34.058Z,11.06
2022-11-24T19:15:36.144Z,11.04
2022-11-24T19:17:38.003Z,11.02
2022-11-24T19:19:41.528Z,11.01
2022-11-24T19:21:43.274Z,11.00
2022-11-24T19:23:47.017Z,10.97
2022-11-24T19:25:51.486Z,10.95
2022-11-24T19:27:53.044Z,10.91
2022-11-24T19:29:54.972Z,10.90
2022-11-24T19:31:56.532Z,10.89
2022-11-24T19:33:59.594Z,10.88
2022-11-24T19:36:11.048Z,10.83
2022-11-24T19:38:15.188Z,10.82
2022-11-24T19:40:17.081Z,10.81
2022-11-24T19:42:18.968Z,10.79
2022-11-24T19:44:20.752Z,10.78
2022-11-24T19:46:27.406Z,10.77
2022-11-24T19:48:40.711Z,10.75
2022-11-24T19:50:42.558Z,10.75
2022-11-24T19:52:44.235Z,10.73
2022-11-24T19:54:46.480Z,10.72
2022-11-24T19:56:53.207Z,10.70
2022-11-24T19:58:58.729Z,10.69
2022-11-24T20:01:13.333Z,10.65
2022-11-24T20:03:15.106Z,10.63
2022-11-24T20:05:16.872Z,10.61
2022-11-24T20:07:20.426Z,10.59
2022-11-24T20:09:22.295Z,10.55
2022-11-24T20:11:25.961Z,10.53
2022-11-24T20:13:27.639Z,10.52
2022-11-24T20:15:29.453Z,10.48
2022-11-24T20:17:32.821Z,10.47
2022-11-24T20:19:35.972Z,10.44
2022-11-24T20:21:39.122Z,10.39
2022-11-24T20:23:42.100Z,10.37
2022-11-24T20:25:43.806Z,10.33
2022-11-24T20:27:45.391Z,10.29
2022-11-24T20:29:47.195Z,10.27
2022-11-24T20:31:52.031Z,10.24
2022-11-24T20:33:53.912Z,10.19
2022-11-24T20:36:00.877Z,10.17
2022-11-24T20:38:02.505Z,10.13
2022-11-24T20:40:04.673Z,10.10
2022-11-24T20:42:07.335Z,10.06
2022-11-24T20:44:13.628Z,10.02
2022-11-24T20:46:18.450Z,9.98
2022-11-24T20:48:19.990Z,9.95
2022-11-24T20:50:21.824Z,9.92
2022-11-24T20:52:23.564Z,9.88
2022-11-24T20:54:25.426Z,9.85
2022-11-24T20:56:38.212Z,9.81
2022-11-24T20:58:40.884Z,9.78
2022-11-24T21:00:42.638Z,9.74
2022-11-24T21:02:44.404Z,9.70
2022-11-24T21:04:46.128Z,9.66
2022-11-24T21:06:48.158Z,9.63
2022-11-24T21:08:50.865Z,9.59
2022-11-24T21:10:57.377Z,9.56
2022-11-24T21:12:58.971Z,9.53
2022-11-24T21:15:00.522Z,9.49
2022-11-24T21:17:02.400Z,9.45
2022-11-24T21:19:08.596Z,9.42
2022-11-24T21:21:10.692Z,9.38
2022-11-24T21:23:13.594Z,9.36
2022-11-24T21:25:24.359Z,9.31
2022-11-24T21:27:27.118Z,9.28
2022-11-24T21:29:28.649Z,9.25
2022-11-24T21:31:30.446Z,9.21
2022-11-24T21:33:32.562Z,9.18
2022-11-24T21:35:37.529Z,9.17
2022-11-24T21:37:39.484Z,9.13
2022-11-24T21:39:46.011Z,9.09
2022-11-24T21:41:48.100Z,9.06
2022-11-24T21:43:50.249Z,9.02
2022-11-24T21:45:52.372Z,8.99
2022-11-24T21:47:54.143Z,8.95
2022-11-24T21:49:55.693Z,8.92
2022-11-24T21:51:57.609Z,8.88
2022-11-24T21:54:01.043Z,8.86
2022-11-24T21:56:06.296Z,8.83
2022-11-24T21:58:08.154Z,8.80
2022-11-24T22:00:10.112Z,8.77
2022-11-24T22:02:13.430Z,8.73
2022-11-24T22:04:15.292Z,8.72
2022-11-24T22:06:19.192Z,8.70
2022-11-24T22:08:21.658Z,8.67
2022-11-24T22:10:23.178Z,8.66
2022-11-24T22:12:25.042Z,8.64
2022-11-24T22:14:27.300Z,8.59
2022-11-24T22:16:29.177Z,8.56
2022-11-24T22:18:35.237Z,8.54
2022-11-24T22:20:39.572Z,8.51
2022-11-24T22:22:41.286Z,8.51
2022-11-24T22:24:43.922Z,8.48
2022-11-24T22:26:45.440Z,8.44
2022-11-24T22:28:47.671Z,8.42
2022-11-24T22:30:49.325Z,8.39
2022-11-24T22:32:50.943Z,8.39
2022-11-24T22:34:52.491Z,8.36
2022-11-24T22:36:54.018Z,8.32
2022-11-24T22:39:03.711Z,8.28
2022-11-24T22:41:17.373Z,8.23
2022-11-24T22:43:22.948Z,8.21
2022-11-24T22:45:25.013Z,8.18
2022-11-24T22:47:26.620Z,8.14
2022-11-24T22:49:29.451Z,8.12
2022-11-24T22:51:33.654Z,8.08
2022-11-24T22:53:35.379Z,8.06
2022-11-24T22:55:37.051Z,8.03
2022-11-24T22:57:38.620Z,8.01
2022-11-24T22:59:40.219Z,7.98
2022-11-24T23:01:41.804Z,7.95
2022-11-24T23:03:43.787Z,7.93
2022-11-24T23:05:45.494Z,7.92
2022-11-24T23:07:50.230Z,7.89
2022-11-24T23:09:51.850Z,7.85
2022-11-24T23:11:53.385Z,7.84
2022-11-24T23:13:57.113Z,7.81
2022-11-24T23:16:04.167Z,7.78
2022-11-24T23:18:05.684Z,7.78
2022-11-24T23:20:07.793Z,7.75
2022-11-24T23:22:09.466Z,7.74
2022-11-24T23:24:14.194Z,7.71
2022-11-24T23:26:21.565Z,7.69
2022-11-24T23:28:23.142Z,7.64
2022-11-24T23:30:24.932Z,7.63
2022-11-24T23:32:26.401Z,7.60
2022-11-24T23:34:28.054Z,7.57
2022-11-24T23:36:30.825Z,7.55
2022-11-24T23:38:32.859Z,7.54
2022-11-24T23:40:34.528Z,7.51
2022-11-24T23:42:36.104Z,7.49
2022-11-24T23:44:37.933Z,7.46
2022-11-24T23:46:39.595Z,7.45
2022-11-24T23:48:41.403Z,7.41
2022-11-24T23:50:43.078Z,7.40
2022-11-24T23:52:44.721Z,7.39
2022-11-24T23:54:46.221Z,7.37
2022-11-24T23:56:48.055Z,7.35
2022-11-24T23:58:50.131Z,7.33
